Woodland, WA (98674)

5:20 AM PDT on October 01, 2014 (GMT -0700)
Goose Hill Overlooking Woodland | Change Station
CLOSE
Current Station
Personal Weather Station
Location: Woodland, WA
Elevation: 600 ft
Nearby Weather Stations
Active Advisory: Special Statement

Elev 600 ft 45.90 °N, 122.72 °W | Updated 1 second ago

Fog
Fog
50.0 °F
Feels Like 50.0 °F
N
0.0
Wind Variable Wind from ESE
Gusts 0.0 mph

Today
High -- | Low -- °F
--% Chance of Precip.
Yesterday
High -- | Low -- °F
Precip. -- in
7:09 AM 6:50 PM
Waxing Crescent, 47% visible
Pressure 30.22 in
Visibility 0.8 miles
Clouds Mostly Cloudy 2400 ft
Dew Point 47 °F
Humidity 90%
Rainfall 0.00 in
Snow Depth 1 in , 0 in , 0 in
UV 0 out of 12
Pollen .90 out of 12
Air Quality Not available.
Flu Activity Not available.
SPECI KSPB 011212Z AUTO 00000KT 3/4SM BR BKN024 07/07 A3022 RMK AO2 T00720067 $

More Conditions Fewer Conditions

Pressure 30.22 in
Visibility 0.8 miles
Clouds Mostly Cloudy 2400 ft
Dew Point 47 °F
Humidity 90%
Rainfall 0.00 in
Snow Depth 1 in , 0 in , 0 in
UV 0 out of 12
Pollen .90 out of 12
Air Quality Not available.
Flu Activity Not available.
SPECI KSPB 011212Z AUTO 00000KT 3/4SM BR BKN024 07/07 A3022 RMK AO2 T00720067 $

More Conditions Fewer Conditions

10-Day Weather Forecast

Almanac

Astronomy

Oct. 01, 2014 Rise Set
Actual Time 7:09 AM PDT 6:50 PM PDT
Civil Twilight 6:39 AM PDT 7:20 PM PDT
Nautical Twilight 6:04 AM PDT 7:55 PM PDT
Astronomical Twilight 5:29 AM PDT 8:30 PM PDT
Moon 2:28 PM PDT No Moon Set
Length of Visible Light 12h 40m
Length of Day
11h 41m
Tomorrow will be 3m 13s shorter.
Waxing Crescent, 47% of the Moon is Illuminated
Today
Waxing Crescent
Oct 1
First Quarter
Oct 8
Full
Oct 15
Last Quarter
Oct 23
New

Today's Extremes

State Highs State Lows

Community

WunderPhotos

Upload Photos

1,757,916 photos uploaded!

Nearby

Snow Depth

Station Depth Elevation
Waterhole 1 in 5000 ft
Mf Nooksack 0 in 4980 ft
Green Lake 0 in 6000 ft
Pigtail Peak 0 in 5900 ft
Lone Pine 0 in 3800 ft

Earthquake Activity

City Distance Mag. Time & Date
No recent earthquake activity has been reported nearby.
Minimum magnitude displayed is 2.5.

Coastal Water Temperatures

Place Temperature
No Stations Reporting

Nearby Weather Stations